Obelix — 7JAX — position and weather

sailwx.info

Track history (hours):
 
Tides and Currents Weather Stations Pressure Air Temp Water Temp Dewpoint Dewpoint Depression Visibility Wind Speed Wind Dir Waves Ship Positions

Obelix

Last reported at 2014-Dec-22 15:31 UTC. Time now 2014-Dec-22 15:38 UTC.
Position N 35°04' E 139°44'.

Length 74 m; draft 4.5 m.

Type: Ship (hazmat cat D). MMSI: 432528000.

Date/timePositionNaut miles runAvg speedWind from/ knotsBaromVisibWave heightAir tempDewpointWater temp
2014-Dec-22 15:31N 35°04' E 139°44'  
2014-Dec-20 07:30N 35°17' E 139°45'1010.3
2014-Dec-20 06:33N 35°27' E 139°47'1110.9
2014-Dec-20 05:31N 35°29' E 140°00'1 0.1
2014-Dec-19 22:30N 35°29' E 140°01'5 3.5
2014-Dec-19 21:06N 35°29' E 139°55'0 0.0
2014-Dec-19 18:33N 35°29' E 139°55'0 0.0
2014-Dec-19 17:24N 35°29' E 139°55'0 0.0
2014-Dec-19 16:24N 35°29' E 139°55'0 0.1
2014-Dec-19 15:30N 35°29' E 139°55'2 1.9
2014-Dec-19 14:16N 35°28' E 139°52'912.0
2014-Dec-19 13:33N 35°22' E 139°45'1212.1
2014-Dec-19 12:33N 35°10' E 139°47'24410.2
2014-Dec-18 12:33N 34°09' E 134°59'1313.5
2014-Dec-18 11:33N 34°23' E 134°60'1312.6
2014-Dec-18 10:33N 34°35' E 135°04'1110.7
2014-Dec-18 09:32N 34°38' E 134°51'5 0.6
2014-Dec-18 00:08N 34°42' E 134°46'610.4
2014-Dec-17 23:32N 34°38' E 134°41'  
2014-Dec-15 10:31N 34°40' E 134°42'7 0.2
2014-Dec-14 06:25N 34°39' E 134°51'1111.7
2014-Dec-14 05:32N 34°36' E 135°03'1111.3
2014-Dec-14 04:33N 34°34' E 135°16'8 7.6
2014-Dec-14 03:33N 34°33' E 135°25'0 0.0
2014-Dec-14 02:29N 34°33' E 135°25'0 0.0
2014-Dec-14 01:29N 34°33' E 135°25'0 0.0
2014-Dec-14 00:29N 34°33' E 135°25'0 0.0
2014-Dec-13 23:23N 34°33' E 135°25'0 0.4
2014-Dec-13 22:33N 34°33' E 135°25'4 3.5
2014-Dec-13 21:33N 34°33' E 135°21'1 1.0
2014-Dec-13 20:24N 34°32' E 135°20'0 0.0
2014-Dec-13 19:30N 34°32' E 135°20'0 0.0
2014-Dec-13 18:30N 34°32' E 135°20'0 0.0
2014-Dec-13 17:30N 34°32' E 135°20'0 0.0
2014-Dec-13 16:30N 34°32' E 135°20'0 0.0
2014-Dec-13 15:24N 34°32' E 135°20'0 0.0
2014-Dec-13 14:24N 34°32' E 135°20'0 0.0
2014-Dec-13 13:30N 34°32' E 135°20'0 0.0
2014-Dec-13 12:30N 34°32' E 135°20'0 0.0
2014-Dec-13 11:18N 34°32' E 135°20'0 0.0
2014-Dec-13 10:06N 34°32' E 135°20'0 0.0
2014-Dec-13 09:30N 34°32' E 135°20'0 0.0
2014-Dec-13 08:18N 34°32' E 135°20'0 0.1
2014-Dec-13 07:30N 34°32' E 135°20'0 0.0
2014-Dec-13 06:30N 34°32' E 135°20'0 0.0
2014-Dec-13 05:18N 34°32' E 135°20'0 0.0
2014-Dec-13 04:18N 34°32' E 135°20'0 0.0
2014-Dec-13 03:30N 34°32' E 135°20'0 0.0
2014-Dec-13 02:30N 34°32' E 135°20'0 0.0
2014-Dec-13 01:30N 34°32' E 135°20'0 0.0
2014-Dec-13 00:30N 34°32' E 135°20'0 0.0
2014-Dec-12 23:30N 34°32' E 135°20'0 0.0
2014-Dec-12 22:24N 34°32' E 135°20'0 0.0
2014-Dec-12 21:30N 34°32' E 135°20'0 0.1
2014-Dec-12 20:30N 34°32' E 135°20'0 0.1
2014-Dec-12 19:30N 34°32' E 135°20'0 0.0
2014-Dec-12 18:18N 34°32' E 135°20'0 0.0
2014-Dec-12 17:30N 34°32' E 135°20'0 0.0
2014-Dec-12 16:30N 34°32' E 135°20'  
Track history (hours):
 
Tides and Currents Weather Stations Pressure Air Temp Water Temp Dewpoint Dewpoint Depression Visibility Wind Speed Wind Dir Waves Ship Positions

Obelix

Last reported at 2014-Dec-22 15:31 UTC. Time now 2014-Dec-22 15:38 UTC.
Position N 35°04' E 139°44'.

Length 74 m; draft 4.5 m.

Type: Ship (hazmat cat D). MMSI: 432528000.

Date/timePositionNaut miles runAvg speedWind from/ knotsBaromVisibWave heightAir tempDewpointWater temp
2014-Dec-22 15:31N 35°04' E 139°44'  
2014-Dec-20 07:30N 35°17' E 139°45'1010.3
2014-Dec-20 06:33N 35°27' E 139°47'1110.9
2014-Dec-20 05:31N 35°29' E 140°00'1 0.1
2014-Dec-19 22:30N 35°29' E 140°01'5 3.5
2014-Dec-19 21:06N 35°29' E 139°55'0 0.0
2014-Dec-19 18:33N 35°29' E 139°55'0 0.0
2014-Dec-19 17:24N 35°29' E 139°55'0 0.0
2014-Dec-19 16:24N 35°29' E 139°55'0 0.1
2014-Dec-19 15:30N 35°29' E 139°55'2 1.9
2014-Dec-19 14:16N 35°28' E 139°52'912.0
2014-Dec-19 13:33N 35°22' E 139°45'1212.1
2014-Dec-19 12:33N 35°10' E 139°47'24410.2
2014-Dec-18 12:33N 34°09' E 134°59'1313.5
2014-Dec-18 11:33N 34°23' E 134°60'1312.6
2014-Dec-18 10:33N 34°35' E 135°04'1110.7
2014-Dec-18 09:32N 34°38' E 134°51'5 0.6
2014-Dec-18 00:08N 34°42' E 134°46'610.4
2014-Dec-17 23:32N 34°38' E 134°41'  
2014-Dec-15 10:31N 34°40' E 134°42'7 0.2
2014-Dec-14 06:25N 34°39' E 134°51'1111.7
2014-Dec-14 05:32N 34°36' E 135°03'1111.3
2014-Dec-14 04:33N 34°34' E 135°16'8 7.6
2014-Dec-14 03:33N 34°33' E 135°25'0 0.0
2014-Dec-14 02:29N 34°33' E 135°25'0 0.0
2014-Dec-14 01:29N 34°33' E 135°25'0 0.0
2014-Dec-14 00:29N 34°33' E 135°25'0 0.0
2014-Dec-13 23:23N 34°33' E 135°25'0 0.4
2014-Dec-13 22:33N 34°33' E 135°25'4 3.5
2014-Dec-13 21:33N 34°33' E 135°21'1 1.0
2014-Dec-13 20:24N 34°32' E 135°20'0 0.0
2014-Dec-13 19:30N 34°32' E 135°20'0 0.0
2014-Dec-13 18:30N 34°32' E 135°20'0 0.0
2014-Dec-13 17:30N 34°32' E 135°20'0 0.0
2014-Dec-13 16:30N 34°32' E 135°20'0 0.0
2014-Dec-13 15:24N 34°32' E 135°20'0 0.0
2014-Dec-13 14:24N 34°32' E 135°20'0 0.0
2014-Dec-13 13:30N 34°32' E 135°20'0 0.0
2014-Dec-13 12:30N 34°32' E 135°20'0 0.0
2014-Dec-13 11:18N 34°32' E 135°20'0 0.0
2014-Dec-13 10:06N 34°32' E 135°20'0 0.0
2014-Dec-13 09:30N 34°32' E 135°20'0 0.0
2014-Dec-13 08:18N 34°32' E 135°20'0 0.1
2014-Dec-13 07:30N 34°32' E 135°20'0 0.0
2014-Dec-13 06:30N 34°32' E 135°20'0 0.0
2014-Dec-13 05:18N 34°32' E 135°20'0 0.0
2014-Dec-13 04:18N 34°32' E 135°20'0 0.0
2014-Dec-13 03:30N 34°32' E 135°20'0 0.0
2014-Dec-13 02:30N 34°32' E 135°20'0 0.0
2014-Dec-13 01:30N 34°32' E 135°20'0 0.0
2014-Dec-13 00:30N 34°32' E 135°20'0 0.0
2014-Dec-12 23:30N 34°32' E 135°20'0 0.0
2014-Dec-12 22:24N 34°32' E 135°20'0 0.0
2014-Dec-12 21:30N 34°32' E 135°20'0 0.1
2014-Dec-12 20:30N 34°32' E 135°20'0 0.1
2014-Dec-12 19:30N 34°32' E 135°20'0 0.0
2014-Dec-12 18:18N 34°32' E 135°20'0 0.0
2014-Dec-12 17:30N 34°32' E 135°20'0 0.0
2014-Dec-12 16:30N 34°32' E 135°20'  

Dump ship's entire track history